Time;durP1;ratioP1;P1;durP2;ratioP2;P2;SDS_P1;SDS_P2;PMS_P1;PMS_P2;Temp;Humidity;BMP_temperature;BMP_pressure;BME280_temperature;BME280_humidity;BME280_pressure;Samples;Min_cycle;Max_cycle;Signal;HPM_P1;HPM_P2
2023/12/08 00:00:12;;;;;;;;;15.50;7.75;;;;;-146.67;82.81;75388.44;5115217;27;61716;-70
2023/12/08 00:02:38;;;;;;;;;7.50;7.00;;;;;-146.67;82.98;75374.44;5098019;27;61885;-71
2023/12/08 00:05:04;;;;;;;;;6.25;6.25;;;;;-146.67;83.55;75376.44;5102316;27;62228;-71
2023/12/08 00:07:29;;;;;;;;;8.00;7.00;;;;;-146.67;83.28;75382.44;5101659;27;61846;-71
2023/12/08 00:09:55;;;;;;;;;8.00;6.75;;;;;-146.67;83.75;75390.44;5102758;27;62086;-70
2023/12/08 00:12:20;;;;;;;;;6.75;5.50;;;;;-146.67;83.34;75386.44;5092394;27;62755;-70
2023/12/08 00:14:45;;;;;;;;;10.25;7.00;;;;;-146.67;84.09;75386.44;5081993;28;62048;-71
2023/12/08 00:17:11;;;;;;;;;13.00;10.75;;;;;-146.67;84.31;75382.44;5081606;27;61782;-71
2023/12/08 00:19:37;;;;;;;;;9.00;7.00;;;;;-146.67;84.22;75384.44;5085203;28;61701;-71
2023/12/08 00:22:02;;;;;;;;;11.25;11.25;;;;;-146.67;84.12;75386.44;5084460;27;62031;-71
2023/12/08 00:24:28;;;;;;;;;12.00;7.75;;;;;-146.67;84.33;75392.41;5083521;28;61797;-71
2023/12/08 00:26:53;;;;;;;;;10.25;8.75;;;;;-146.67;83.93;75394.41;5083958;27;61890;-71
2023/12/08 00:29:19;;;;;;;;;9.25;7.50;;;;;-146.67;84.59;75388.44;5084808;27;61722;-71
2023/12/08 00:31:45;;;;;;;;;8.50;7.75;;;;;-146.67;85.07;75382.44;5102638;27;61863;-71
2023/12/08 00:34:10;;;;;;;;;10.50;8.25;;;;;-146.67;84.88;75378.44;5105509;27;61881;-71
2023/12/08 00:36:36;;;;;;;;;19.00;10.25;;;;;-146.67;85.05;75386.44;5105024;27;61887;-70
2023/12/08 00:39:01;;;;;;;;;7.75;7.75;;;;;-146.67;85.38;75376.44;5105720;27;61914;-71
2023/12/08 00:41:27;;;;;;;;;11.50;10.75;;;;;-146.67;85.32;75370.47;5104630;27;61854;-70
2023/12/08 00:43:53;;;;;;;;;8.25;6.75;;;;;-146.67;84.71;75382.44;5105617;27;61809;-71
2023/12/08 00:46:18;;;;;;;;;14.00;6.50;;;;;-146.67;85.30;75380.44;5105536;27;62057;-71
2023/12/08 00:48:43;;;;;;;;;12.00;10.00;;;;;-146.67;85.29;75374.44;5091060;27;62232;-71
2023/12/08 00:51:12;;;;;;;;;9.25;8.75;;;;;-146.67;85.20;75364.47;5084228;27;61873;-71
2023/12/08 00:53:37;;;;;;;;;10.00;5.50;;;;;-146.67;84.95;75364.47;5084333;27;61993;-71
2023/12/08 00:56:03;;;;;;;;;5.25;4.25;;;;;-146.67;84.57;75346.50;5083630;27;61805;-71
2023/12/08 00:58:28;;;;;;;;;11.50;7.00;;;;;-146.67;84.76;75338.50;5083320;27;62048;-71
2023/12/08 01:00:53;;;;;;;;;6.00;6.00;;;;;-146.67;84.34;75340.50;5094344;27;61944;-71
2023/12/08 01:03:19;;;;;;;;;6.25;5.00;;;;;-146.67;84.06;75338.50;5113853;27;61920;-71
2023/12/08 01:05:44;;;;;;;;;11.00;7.00;;;;;-146.67;84.22;75342.50;5125534;27;61891;-71
2023/12/08 01:08:09;;;;;;;;;8.00;5.25;;;;;-146.67;84.42;75336.50;5115533;27;61817;-71
2023/12/08 01:10:35;;;;;;;;;5.50;5.50;;;;;-146.67;84.61;75342.50;5102727;27;63911;-71
2023/12/08 01:13:00;;;;;;;;;5.75;4.00;;;;;-146.67;84.96;75342.50;5105125;27;61720;-71
2023/12/08 01:15:25;;;;;;;;;6.00;6.00;;;;;-146.67;84.56;75332.50;5103551;27;61940;-71
2023/12/08 01:17:51;;;;;;;;;3.00;3.00;;;;;-146.67;84.71;75334.50;5104664;27;62184;-71
2023/12/08 01:20:16;;;;;;;;;4.00;2.75;;;;;-146.67;83.96;75338.50;5103885;27;61893;-71
2023/12/08 01:22:41;;;;;;;;;7.25;4.00;;;;;-146.67;83.58;75342.50;5103000;27;61963;-71
2023/12/08 01:25:07;;;;;;;;;7.50;5.00;;;;;-146.67;84.03;75350.50;5105060;27;61931;-71
2023/12/08 01:27:32;;;;;;;;;6.00;3.00;;;;;-146.67;84.57;75344.50;5104612;27;61819;-71
2023/12/08 01:29:58;;;;;;;;;5.00;5.00;;;;;-146.67;84.97;75350.50;5101977;27;64903;-71
2023/12/08 01:32:23;;;;;;;;;4.25;4.25;;;;;-146.67;85.23;75352.47;5104457;27;61886;-71
2023/12/08 01:34:48;;;;;;;;;7.75;4.75;;;;;-146.67;84.49;75348.50;5104271;27;62063;-70
2023/12/08 01:37:14;;;;;;;;;6.00;6.00;;;;;-146.67;84.61;75350.50;5103321;27;61884;-71
2023/12/08 01:39:40;;;;;;;;;8.00;8.00;;;;;-146.67;85.11;75352.47;5103656;27;62434;-71
2023/12/08 01:42:05;;;;;;;;;8.00;6.25;;;;;-146.67;85.11;75352.47;5104463;27;62169;-71
2023/12/08 01:44:30;;;;;;;;;6.50;6.25;;;;;-146.67;84.93;75348.50;5104788;27;62050;-71
2023/12/08 01:46:56;;;;;;;;;11.00;7.50;;;;;-146.67;85.67;75358.47;5104077;27;62035;-71
2023/12/08 01:49:22;;;;;;;;;7.00;6.50;;;;;-146.67;84.77;75350.50;5103387;27;61881;-71
2023/12/08 01:51:47;;;;;;;;;9.00;7.00;;;;;-146.67;85.30;75340.50;5104004;27;61808;-71
2023/12/08 01:54:15;;;;;;;;;3.00;3.00;;;;;-146.67;84.92;75336.50;5096716;27;61924;-71
2023/12/08 01:56:42;;;;;;;;;5.75;5.75;;;;;-146.67;85.40;75334.50;5082823;27;61928;-71
2023/12/08 01:59:08;;;;;;;;;4.25;4.25;;;;;-146.67;83.97;75342.50;5082234;28;63972;-71
2023/12/08 02:01:34;;;;;;;;;5.25;5.25;;;;;-146.67;84.84;75346.50;5087207;27;61991;-71
2023/12/08 02:04:00;;;;;;;;;7.00;6.00;;;;;-146.67;85.13;75348.50;5102842;27;62055;-70
2023/12/08 02:06:26;;;;;;;;;4.50;3.00;;;;;-146.67;85.11;75354.47;5120305;27;61916;-71
2023/12/08 02:08:51;;;;;;;;;6.00;6.00;;;;;-146.67;85.40;75352.47;5103107;27;61822;-71
2023/12/08 02:11:17;;;;;;;;;4.00;4.00;;;;;-146.67;85.65;75354.47;5102669;27;62059;-71
2023/12/08 02:13:43;;;;;;;;;10.50;5.50;;;;;-146.67;85.82;75354.47;5104382;27;61827;-71
2023/12/08 02:16:28;;;;;;;;;11.00;8.00;;;;;-146.67;85.42;75358.47;5103963;27;61878;-71
2023/12/08 02:18:55;;;;;;;;;6.00;4.75;;;;;-146.67;85.56;75370.47;5101572;27;65057;-71
2023/12/08 02:21:20;;;;;;;;;5.75;5.50;;;;;-146.67;85.90;75380.44;5103796;27;61941;-71
2023/12/08 02:23:49;;;;;;;;;6.00;4.50;;;;;-146.67;85.90;75380.44;5083445;27;61887;-71
2023/12/08 02:26:16;;;;;;;;;7.25;5.00;;;;;-146.67;86.34;75368.47;5082350;28;62002;-71
2023/12/08 02:28:43;;;;;;;;;6.75;5.25;;;;;-146.67;86.17;75366.47;5081172;28;63741;-71
2023/12/08 02:31:12;;;;;;;;;7.25;3.75;;;;;-146.67;86.64;75370.47;5101821;27;61821;-71
2023/12/08 02:33:39;;;;;;;;;9.75;6.25;;;;;-146.67;86.63;75370.47;5101718;27;62007;-71
2023/12/08 02:36:06;;;;;;;;;6.50;6.50;;;;;-146.67;86.72;75356.47;5102779;27;61939;-71
2023/12/08 02:38:32;;;;;;;;;7.25;6.50;;;;;-146.67;86.99;75372.44;5102013;27;63157;-71
2023/12/08 02:40:58;;;;;;;;;8.75;6.75;;;;;-146.67;87.48;75366.47;5097276;27;61877;-71
2023/12/08 02:43:24;;;;;;;;;8.00;6.75;;;;;-146.67;87.21;75358.47;5082857;27;62385;-71
2023/12/08 02:45:49;;;;;;;;;8.00;5.25;;;;;-146.67;87.51;75356.47;5083487;27;61718;-71
2023/12/08 02:48:15;;;;;;;;;7.00;5.25;;;;;-146.67;86.89;75350.50;5080951;28;64769;-71
2023/12/08 02:50:42;;;;;;;;;5.00;5.00;;;;;-146.67;87.43;75360.47;5081260;27;61818;-71
2023/12/08 02:53:07;;;;;;;;;8.00;5.75;;;;;-146.67;87.03;75358.47;5082721;28;61803;-71
2023/12/08 02:55:32;;;;;;;;;5.00;5.00;;;;;-146.67;86.93;75358.47;5085521;27;61665;-71
2023/12/08 02:57:58;;;;;;;;;10.25;6.50;;;;;-146.67;87.55;75362.47;5102375;27;61756;-71
2023/12/08 03:00:23;;;;;;;;;5.75;4.25;;;;;-146.67;88.02;75354.47;5102006;27;61782;-71
2023/12/08 03:02:48;;;;;;;;;6.25;5.00;;;;;-146.67;87.47;75346.50;5103275;27;61921;-71
2023/12/08 03:05:14;;;;;;;;;6.25;5.25;;;;;-146.67;87.27;75338.50;5101826;27;61868;-71
2023/12/08 03:07:39;;;;;;;;;6.00;5.75;;;;;-146.67;87.00;75342.50;5102166;27;62096;-71
2023/12/08 03:10:05;;;;;;;;;5.25;5.25;;;;;-146.67;87.62;75346.50;5101884;27;62007;-71
2023/12/08 03:12:30;;;;;;;;;7.25;6.00;;;;;-146.67;87.91;75340.50;5101466;27;61687;-71
2023/12/08 03:14:56;;;;;;;;;7.00;6.25;;;;;-146.67;87.59;75334.50;5103444;27;61887;-71
2023/12/08 03:17:21;;;;;;;;;6.25;5.50;;;;;-146.67;88.00;75342.50;5100910;27;63946;-71
2023/12/08 03:19:46;;;;;;;;;7.50;6.50;;;;;-146.67;87.68;75328.53;5082215;27;61749;-71
2023/12/08 03:22:12;;;;;;;;;6.75;5.00;;;;;-146.67;87.85;75328.53;5081272;28;62005;-71
2023/12/08 03:24:38;;;;;;;;;6.50;4.25;;;;;-146.67;87.65;75332.50;5082626;27;61792;-71
2023/12/08 03:27:03;;;;;;;;;4.50;4.50;;;;;-146.67;88.03;75328.53;5081757;27;61888;-71
2023/12/08 03:29:29;;;;;;;;;6.50;4.00;;;;;-146.67;88.41;75334.50;5081016;28;61950;-71
2023/12/08 03:31:54;;;;;;;;;9.50;9.50;;;;;-146.67;88.13;75336.50;5082615;27;62136;-71
2023/12/08 03:34:19;;;;;;;;;9.00;6.00;;;;;-146.67;88.46;75344.50;5082794;28;61778;-71
2023/12/08 03:36:45;;;;;;;;;5.75;5.00;;;;;-146.67;88.76;75354.47;5082212;28;61873;-71
2023/12/08 03:39:10;;;;;;;;;12.00;6.50;;;;;-146.67;88.40;75352.47;5082300;28;61969;-71
2023/12/08 03:41:35;;;;;;;;;13.50;8.75;;;;;-146.67;87.85;75348.50;5082259;27;61811;-71
2023/12/08 03:44:01;;;;;;;;;13.00;8.00;;;;;-146.67;88.83;75350.50;5082654;27;62243;-71
2023/12/08 03:46:26;;;;;;;;;8.25;4.50;;;;;-146.67;88.96;75352.47;5081802;27;61792;-71
2023/12/08 03:48:52;;;;;;;;;7.75;6.75;;;;;-146.67;88.95;75346.50;5081731;27;61810;-71
2023/12/08 03:51:17;;;;;;;;;7.75;7.00;;;;;-146.67;89.13;75352.47;5081950;27;62359;-71
2023/12/08 03:53:42;;;;;;;;;18.50;11.50;;;;;-146.67;89.09;75352.47;5084571;27;61822;-71
2023/12/08 03:56:08;;;;;;;;;8.00;5.75;;;;;-146.67;89.11;75356.47;5083671;27;63423;-71
2023/12/08 03:58:33;;;;;;;;;19.50;9.00;;;;;-146.67;89.15;75360.47;5084218;27;62049;-71
2023/12/08 04:00:59;;;;;;;;;9.50;6.25;;;;;-146.67;89.56;75354.47;5089646;27;62074;-71
2023/12/08 04:03:24;;;;;;;;;7.00;6.75;;;;;-146.67;89.57;75352.47;5106387;27;62246;-71
2023/12/08 04:05:50;;;;;;;;;8.25;5.50;;;;;-146.67;89.21;75358.47;5105659;27;62171;-71
2023/12/08 04:08:16;;;;;;;;;8.00;6.00;;;;;-146.67;89.29;75364.47;5105801;27;62294;-71
2023/12/08 04:10:41;;;;;;;;;7.75;6.50;;;;;-146.67;89.14;75360.47;5105630;27;62122;-71
2023/12/08 04:13:06;;;;;;;;;9.00;6.00;;;;;-146.67;89.34;75364.47;5104767;27;62083;-71
2023/12/08 04:15:32;;;;;;;;;6.25;6.00;;;;;-146.67;89.06;75362.47;5105348;27;62089;-71
2023/12/08 04:17:57;;;;;;;;;13.25;7.50;;;;;-146.67;89.00;75370.47;5106014;27;62039;-71
2023/12/08 04:20:23;;;;;;;;;8.00;6.75;;;;;-146.67;89.75;75380.44;5104183;27;61904;-71
2023/12/08 04:22:48;;;;;;;;;9.50;7.50;;;;;-146.67;89.82;75380.44;5105784;27;62009;-71
2023/12/08 04:25:14;;;;;;;;;9.25;7.00;;;;;-146.67;90.20;75378.44;5105063;27;61837;-71
2023/12/08 04:27:39;;;;;;;;;11.50;6.75;;;;;-146.67;90.32;75380.44;5105146;27;61967;-71
2023/12/08 04:30:05;;;;;;;;;8.50;5.25;;;;;-146.67;90.11;75370.47;5105915;27;62117;-71
2023/12/08 04:32:31;;;;;;;;;7.00;7.00;;;;;-146.67;90.23;75372.44;5104374;27;61770;-71
2023/12/08 04:34:57;;;;;;;;;8.25;6.50;;;;;-146.67;90.67;75370.47;5104000;27;63701;-71
2023/12/08 04:37:22;;;;;;;;;11.25;6.25;;;;;-146.67;90.78;75374.44;5105630;27;61872;-71
2023/12/08 04:39:47;;;;;;;;;8.00;6.25;;;;;-146.67;91.20;75380.44;5104827;27;61737;-71
2023/12/08 04:42:14;;;;;;;;;6.75;6.00;;;;;-146.67;91.16;75382.44;5104673;27;62088;-71
2023/12/08 04:44:39;;;;;;;;;10.00;6.25;;;;;-146.67;91.54;75380.44;5104639;27;63290;-71
2023/12/08 04:47:05;;;;;;;;;11.00;7.25;;;;;-146.67;91.44;75378.44;5105459;27;61754;-71
2023/12/08 04:49:30;;;;;;;;;1.00;0.00;;;;;-146.67;91.56;75378.44;5105127;27;62192;-71
2023/12/08 04:51:55;;;;;;;;;13.00;8.75;;;;;-146.67;91.79;75382.44;5103903;27;62071;-71
2023/12/08 04:54:21;;;;;;;;;13.00;8.00;;;;;-146.67;92.16;75382.44;5102805;27;63744;-71
2023/12/08 04:56:46;;;;;;;;;8.75;7.75;;;;;-146.67;92.16;75384.44;5104945;27;61752;-71
2023/12/08 04:59:11;;;;;;;;;8.00;8.00;;;;;-146.67;92.37;75386.44;5105356;27;61954;-71
2023/12/08 05:01:37;;;;;;;;;13.50;10.00;;;;;-146.67;92.51;75390.44;5101844;27;61978;-71
2023/12/08 05:04:05;;;;;;;;;6.50;6.25;;;;;-146.67;92.95;75394.41;5103722;27;62906;-71
2023/12/08 05:06:30;;;;;;;;;9.00;6.00;;;;;-146.67;93.45;75392.41;5103741;27;61792;-71
2023/12/08 05:08:56;;;;;;;;;6.00;5.75;;;;;-146.67;93.03;75390.44;5104593;27;62345;-71
2023/12/08 05:11:21;;;;;;;;;16.00;8.00;;;;;-146.67;93.48;75394.41;5105485;27;61816;-71
2023/12/08 05:13:48;;;;;;;;;13.75;6.75;;;;;-146.67;93.37;75394.41;5104404;27;62055;-71
2023/12/08 05:16:14;;;;;;;;;8.75;5.75;;;;;-146.67;93.05;75390.44;5103786;27;62146;-71
2023/12/08 05:18:39;;;;;;;;;11.25;7.50;;;;;-146.67;92.87;75386.44;5103612;27;62031;-71
2023/12/08 05:21:05;;;;;;;;;9.50;5.50;;;;;-146.67;92.61;75384.44;5104660;27;61887;-71
2023/12/08 05:23:30;;;;;;;;;9.50;5.75;;;;;-146.67;92.60;75378.44;5102986;27;62185;-71
2023/12/08 05:25:55;;;;;;;;;6.25;5.75;;;;;-146.67;92.77;75376.44;5102730;27;62283;-71
2023/12/08 05:28:21;;;;;;;;;13.25;3.50;;;;;-146.67;92.44;75368.47;5104456;27;61936;-71
2023/12/08 05:30:46;;;;;;;;;7.75;5.00;;;;;-146.67;92.34;75374.44;5104683;27;62180;-71
2023/12/08 05:33:11;;;;;;;;;7.00;5.25;;;;;-146.67;92.36;75374.44;5102410;27;63985;-71
2023/12/08 05:35:37;;;;;;;;;10.00;5.75;;;;;-146.67;91.92;75372.44;5103171;27;61988;-71
2023/12/08 05:38:02;;;;;;;;;5.75;5.75;;;;;-146.67;92.27;75376.44;5103308;27;62205;-71
2023/12/08 05:40:28;;;;;;;;;6.50;6.50;;;;;-146.67;92.77;75382.44;5103141;27;62130;-71
2023/12/08 05:42:53;;;;;;;;;6.00;4.50;;;;;-146.67;92.81;75382.44;5103468;27;62008;-71
2023/12/08 05:45:18;;;;;;;;;10.50;7.00;;;;;-146.67;93.24;75384.44;5104032;27;61843;-71
2023/12/08 05:47:44;;;;;;;;;11.25;5.50;;;;;-146.67;93.07;75396.41;5104034;27;61956;-71
2023/12/08 05:50:10;;;;;;;;;8.00;5.00;;;;;-146.67;93.03;75394.41;5103569;27;61912;-71
2023/12/08 05:52:35;;;;;;;;;6.25;5.00;;;;;-146.67;93.04;75390.44;5103454;27;62404;-71
2023/12/08 05:55:01;;;;;;;;;14.50;6.00;;;;;-146.67;92.90;75384.44;5103994;27;61728;-71
2023/12/08 05:57:27;;;;;;;;;5.50;5.50;;;;;-146.67;92.14;75380.44;5104379;27;61801;-71
2023/12/08 05:59:52;;;;;;;;;9.75;6.75;;;;;-146.67;91.90;75386.44;5084023;27;61772;-71
2023/12/08 06:02:18;;;;;;;;;5.75;5.00;;;;;-146.67;91.60;75384.44;5095860;27;61921;-71
2023/12/08 06:04:43;;;;;;;;;11.75;7.00;;;;;-146.67;91.67;75388.44;5102411;27;61746;-71
2023/12/08 06:07:08;;;;;;;;;5.75;4.00;;;;;-146.67;90.99;75386.44;5101798;27;61885;-71
2023/12/08 06:09:34;;;;;;;;;7.50;6.50;;;;;-146.67;91.29;75386.44;5103008;27;61892;-71
2023/12/08 06:11:59;;;;;;;;;10.25;8.00;;;;;-146.67;91.20;75406.41;5102676;27;63182;-71
2023/12/08 06:14:25;;;;;;;;;10.25;5.00;;;;;-146.67;91.45;75416.38;5103690;27;62163;-71
2023/12/08 06:16:50;;;;;;;;;10.00;7.00;;;;;-146.67;91.97;75430.38;5102604;27;62005;-72
2023/12/08 06:19:15;;;;;;;;;3.50;3.50;;;;;-146.67;91.99;75424.38;5103464;27;62010;-71
2023/12/08 06:21:41;;;;;;;;;9.50;6.25;;;;;-146.67;92.61;75424.38;5100937;27;61770;-71
2023/12/08 06:24:08;;;;;;;;;11.00;5.00;;;;;-146.67;92.05;75424.38;5081373;27;61805;-71
2023/12/08 06:26:38;;;;;;;;;8.75;5.00;;;;;-146.67;92.12;75432.34;5081829;28;61946;-71
2023/12/08 06:29:04;;;;;;;;;7.00;7.00;;;;;-146.67;91.88;75438.34;5099244;27;62012;-71
2023/12/08 06:31:30;;;;;;;;;6.50;5.00;;;;;-146.67;92.41;75440.34;5102826;27;62188;-71
2023/12/08 06:33:55;;;;;;;;;8.75;6.50;;;;;-146.67;92.01;75442.34;5101671;27;61960;-71
2023/12/08 06:36:20;;;;;;;;;12.00;9.00;;;;;-146.67;92.16;75440.34;5102013;27;62045;-71
2023/12/08 06:38:46;;;;;;;;;7.25;6.50;;;;;-146.67;92.46;75444.34;5103320;27;61804;-71
2023/12/08 06:41:11;;;;;;;;;11.00;7.00;;;;;-146.67;92.56;75446.34;5119911;27;61957;-71
2023/12/08 06:43:37;;;;;;;;;11.00;5.75;;;;;-146.67;92.24;75432.34;5111184;27;62139;-71
2023/12/08 06:46:02;;;;;;;;;6.50;6.00;;;;;-146.67;92.41;75440.34;5104041;27;62011;-71
2023/12/08 06:48:27;;;;;;;;;12.50;5.50;;;;;-146.67;92.34;75444.34;5100796;27;62303;-71
2023/12/08 06:50:53;;;;;;;;;10.75;7.25;;;;;-146.67;92.80;75448.34;5100659;27;62888;-71
2023/12/08 06:53:19;;;;;;;;;8.50;6.00;;;;;-146.67;92.98;75446.34;5099617;27;62061;-71
2023/12/08 06:55:44;;;;;;;;;8.75;6.00;;;;;-146.67;92.84;75452.31;5102105;27;61825;-70
2023/12/08 06:58:09;;;;;;;;;8.50;8.00;;;;;-146.67;93.60;75464.31;5110005;27;61872;-70
2023/12/08 07:00:36;;;;;;;;;12.75;7.25;;;;;-146.67;94.04;75468.31;5100576;27;63028;-69
2023/12/08 07:03:01;;;;;;;;;8.75;6.00;;;;;-146.67;93.77;75464.31;5098443;27;61881;-71
2023/12/08 07:05:26;;;;;;;;;12.75;7.50;;;;;-146.67;93.71;75472.28;5101930;27;61758;-69
2023/12/08 07:07:52;;;;;;;;;10.75;8.50;;;;;-146.67;92.87;75476.28;5102883;27;61761;-69
2023/12/08 07:10:19;;;;;;;;;12.00;7.50;;;;;-146.67;93.67;75476.28;5100160;27;64702;-71
2023/12/08 07:12:44;;;;;;;;;12.50;9.25;;;;;-146.67;93.40;75478.28;5100877;27;61890;-70
2023/12/08 07:15:10;;;;;;;;;11.00;10.00;;;;;-146.67;94.16;75480.28;5101013;27;61939;-70
2023/12/08 07:17:36;;;;;;;;;13.75;10.25;;;;;-146.67;94.59;75486.28;5101445;27;62169;-70
2023/12/08 07:20:01;;;;;;;;;11.25;10.50;;;;;-146.67;94.88;75486.28;5099580;27;64932;-70
2023/12/08 07:22:26;;;;;;;;;13.25;8.25;;;;;-146.67;93.88;75476.28;5097286;27;61818;-70
2023/12/08 07:24:53;;;;;;;;;13.25;8.50;;;;;-146.67;94.03;75490.28;5101424;27;62366;-70
2023/12/08 07:27:20;;;;;;;;;10.50;8.00;;;;;-146.67;95.43;75504.25;5099933;27;62310;-71
2023/12/08 07:29:45;;;;;;;;;15.75;9.00;;;;;-146.67;94.55;75500.25;5098715;27;64242;-70
2023/12/08 07:32:10;;;;;;;;;15.75;11.00;;;;;-146.67;93.99;75516.22;5101096;27;62120;-71
2023/12/08 07:34:36;;;;;;;;;12.50;12.00;;;;;-146.67;95.18;75518.22;5099847;27;62110;-71
2023/12/08 07:37:01;;;;;;;;;17.25;10.50;;;;;-146.67;95.36;75520.22;5101297;27;61745;-71
2023/12/08 07:39:27;;;;;;;;;9.50;7.75;;;;;-146.67;95.93;75520.22;5101325;27;61765;-71
2023/12/08 07:41:53;;;;;;;;;11.75;8.00;;;;;-146.67;96.17;75518.22;5102439;27;61767;-71
2023/12/08 07:44:18;;;;;;;;;12.75;11.00;;;;;-146.67;96.00;75518.22;5101205;27;61924;-71
2023/12/08 07:46:43;;;;;;;;;10.00;9.00;;;;;-146.67;96.18;75512.25;5099992;27;62053;-71
2023/12/08 07:49:08;;;;;;;;;13.00;10.75;;;;;-146.67;96.07;75504.25;5098662;27;63475;-71
2023/12/08 07:51:34;;;;;;;;;15.50;13.75;;;;;-146.67;95.40;75508.25;5101343;27;61780;-71
2023/12/08 07:54:00;;;;;;;;;19.00;11.25;;;;;-146.67;95.41;75504.25;5100076;27;62470;-71
2023/12/08 07:56:25;;;;;;;;;16.00;12.00;;;;;-146.67;95.21;75510.25;5102696;27;61980;-71
2023/12/08 07:58:51;;;;;;;;;11.00;10.00;;;;;-146.67;95.56;75518.22;5101330;27;63224;-71
2023/12/08 08:01:16;;;;;;;;;16.25;13.50;;;;;-146.67;95.94;75528.22;5099348;27;62139;-72
2023/12/08 08:03:42;;;;;;;;;18.75;15.50;;;;;-146.67;97.17;75534.19;5099368;27;62053;-73
2023/12/08 08:06:08;;;;;;;;;18.75;11.25;;;;;-146.67;96.73;75524.22;5099427;27;61841;-73
2023/12/08 08:08:35;;;;;;;;;15.25;11.00;;;;;-146.67;96.17;75512.25;5097462;27;62146;-73
2023/12/08 08:11:00;;;;;;;;;19.25;10.25;;;;;-146.67;95.91;75512.25;5102630;27;61873;-73
2023/12/08 08:13:26;;;;;;;;;12.25;8.25;;;;;-146.67;95.13;75514.22;5100407;27;61790;-73
2023/12/08 08:15:51;;;;;;;;;19.25;12.50;;;;;-146.67;94.91;75512.25;5099683;27;61844;-73
2023/12/08 08:18:16;;;;;;;;;20.25;11.00;;;;;-146.67;94.64;75514.22;5097389;27;63693;-73
2023/12/08 08:20:42;;;;;;;;;11.75;11.50;;;;;-146.67;95.35;75516.22;5097446;27;61986;-73
2023/12/08 08:23:08;;;;;;;;;12.75;10.75;;;;;-146.67;95.51;75512.25;5099463;27;61903;-73
2023/12/08 08:25:33;;;;;;;;;11.75;9.50;;;;;-146.67;94.91;75500.25;5100440;27;62147;-73
2023/12/08 08:28:00;;;;;;;;;13.00;10.50;;;;;-146.67;95.07;75510.25;5099145;27;61923;-73
2023/12/08 08:30:26;;;;;;;;;14.25;14.25;;;;;-146.67;94.80;75500.25;5098762;27;61878;-73
2023/12/08 08:32:51;;;;;;;;;11.75;9.50;;;;;-146.67;94.59;75492.28;5096828;27;61864;-76
2023/12/08 08:35:16;;;;;;;;;11.75;9.50;;;;;-146.67;94.12;75496.25;5100099;27;61960;-73
2023/12/08 08:37:42;;;;;;;;;14.00;10.00;;;;;-146.67;94.20;75488.28;5101437;27;63231;-72
2023/12/08 08:40:09;;;;;;;;;22.75;13.50;;;;;-146.67;94.19;75496.25;5115244;27;62064;-72
2023/12/08 08:42:36;;;;;;;;;11.50;11.50;;;;;-146.67;93.90;75496.25;5114573;27;61872;-72
2023/12/08 08:45:02;;;;;;;;;12.25;10.75;;;;;-146.67;93.93;75504.25;5111707;27;62073;-72
2023/12/08 08:47:28;;;;;;;;;12.50;9.75;;;;;-146.67;93.90;75492.28;5113314;27;62337;-72
2023/12/08 08:49:53;;;;;;;;;20.00;11.00;;;;;-146.67;93.92;75482.28;5105189;27;61759;-73
2023/12/08 08:52:19;;;;;;;;;14.50;8.50;;;;;-146.67;93.51;75472.28;5103416;27;61752;-72
2023/12/08 08:54:46;;;;;;;;;28.00;19.00;;;;;-146.67;92.90;75468.31;5108014;27;62230;-73
2023/12/08 08:57:11;;;;;;;;;10.75;9.50;;;;;-146.67;91.44;75450.34;5112939;27;61952;-73
2023/12/08 08:59:37;;;;;;;;;19.50;13.00;;;;;-146.67;91.25;75438.34;5110796;27;61891;-73
2023/12/08 09:02:02;;;;;;;;;17.25;12.50;;;;;-146.67;90.99;75432.34;5100226;27;61962;-73
2023/12/08 09:04:28;;;;;;;;;16.00;12.75;;;;;-146.67;90.78;75418.38;5105289;27;62234;-73
2023/12/08 09:06:55;;;;;;;;;13.25;11.00;;;;;-146.67;90.24;75416.38;5113487;27;61933;-73
2023/12/08 09:09:21;;;;;;;;;10.75;3.25;;;;;-146.67;89.80;75418.38;5111631;27;62038;-73
2023/12/08 09:11:46;;;;;;;;;10.75;9.25;;;;;-146.67;89.74;75418.38;5113538;27;61991;-73
2023/12/08 09:14:12;;;;;;;;;12.75;7.50;;;;;-146.67;89.27;75416.38;5111018;27;62028;-73
2023/12/08 09:16:37;;;;;;;;;8.50;8.25;;;;;-146.67;89.00;75414.38;5111900;27;65509;-73
2023/12/08 09:19:03;;;;;;;;;17.50;10.00;;;;;-146.67;89.16;75408.41;5108318;27;61843;-73
2023/12/08 09:21:28;;;;;;;;;13.75;10.00;;;;;-146.67;88.93;75394.41;5104314;27;62103;-72
2023/12/08 09:23:54;;;;;;;;;14.25;8.75;;;;;-146.67;88.12;75390.44;5104668;27;61908;-73
2023/12/08 09:26:19;;;;;;;;;12.50;8.00;;;;;-146.67;88.17;75384.44;5107178;27;64787;-73
2023/12/08 09:28:45;;;;;;;;;15.25;10.75;;;;;-146.67;87.80;75380.44;5113146;27;61996;-74
2023/12/08 09:31:11;;;;;;;;;8.00;8.00;;;;;-146.67;87.24;75380.44;5115017;27;61909;-74
2023/12/08 09:33:37;;;;;;;;;11.75;8.50;;;;;-146.67;87.13;75388.44;5112346;27;61941;-73
2023/12/08 09:36:02;;;;;;;;;7.00;6.50;;;;;-146.67;87.14;75386.44;5114379;27;62122;-74
2023/12/08 09:38:28;;;;;;;;;14.25;10.50;;;;;-146.67;86.76;75386.44;5108401;27;62002;-74
2023/12/08 09:40:54;;;;;;;;;7.75;6.00;;;;;-146.67;86.27;75384.44;5111993;27;61760;-74
2023/12/08 09:43:34;;;;;;;;;15.00;9.25;;;;;-146.67;86.84;75380.44;5108300;27;61837;-75
2023/12/08 09:46:01;;;;;;;;;12.75;7.25;;;;;-146.67;86.11;75374.44;5108526;27;61969;-74
2023/12/08 09:48:28;;;;;;;;;12.25;7.75;;;;;-146.67;85.39;75374.44;5106314;27;61849;-72
2023/12/08 09:50:57;;;;;;;;;11.25;7.00;;;;;-146.67;85.18;75366.47;5101562;27;61839;-72
2023/12/08 09:53:24;;;;;;;;;11.75;6.00;;;;;-146.67;85.00;75360.47;5110200;27;62100;-72
2023/12/08 09:55:51;;;;;;;;;10.00;5.25;;;;;-146.67;84.33;75360.47;5108089;27;63273;-75
2023/12/08 09:58:17;;;;;;;;;6.25;5.50;;;;;-146.67;83.90;75360.47;5110105;27;61954;-73
2023/12/08 10:00:44;;;;;;;;;7.50;7.50;;;;;-146.67;84.39;75358.47;5113943;27;62159;-74
2023/12/08 10:03:10;;;;;;;;;7.75;5.00;;;;;-146.67;83.76;75356.47;5100505;27;61847;-74
2023/12/08 10:05:36;;;;;;;;;10.50;6.00;;;;;-146.67;83.15;75346.50;5109472;27;61885;-74
2023/12/08 10:08:02;;;;;;;;;11.25;7.00;;;;;-146.67;82.93;75340.50;5103842;27;61961;-74
2023/12/08 10:10:28;;;;;;;;;8.75;7.75;;;;;-146.67;82.70;75338.50;5111688;27;62128;-74
2023/12/08 10:12:53;;;;;;;;;12.25;7.50;;;;;-146.67;81.91;75334.50;5108529;27;62049;-75
2023/12/08 10:15:20;;;;;;;;;8.25;6.25;;;;;-146.67;81.76;75326.53;5109106;27;63002;-75
2023/12/08 10:17:48;;;;;;;;;11.75;7.00;;;;;-146.67;81.75;75334.50;5106252;27;62510;-74
2023/12/08 10:20:14;;;;;;;;;12.75;8.50;;;;;-146.67;81.32;75320.53;5109121;27;62063;-74
2023/12/08 10:22:54;;;;;;;;;10.25;6.50;;;;;-146.67;80.87;75330.53;5105162;27;62245;-75
2023/12/08 10:25:21;;;;;;;;;14.50;7.75;;;;;-146.67;81.50;75366.47;5103302;27;63258;-74
2023/12/08 10:27:50;;;;;;;;;19.25;11.75;;;;;-146.67;83.51;75390.44;5113420;27;62224;-74
2023/12/08 10:30:16;;;;;;;;;8.75;7.50;;;;;-146.67;83.02;75398.41;5103222;27;62027;-74
2023/12/08 10:32:42;;;;;;;;;8.00;7.25;;;;;-146.67;84.14;75400.41;5110807;27;62073;-77
2023/12/08 10:35:10;;;;;;;;;12.75;10.25;;;;;-146.67;83.43;75378.44;5107160;27;63136;-75
2023/12/08 10:37:35;;;;;;;;;11.25;7.00;;;;;-146.67;83.04;75366.47;5104913;27;61998;-74
2023/12/08 10:40:01;;;;;;;;;14.25;8.00;;;;;-146.67;83.10;75354.47;5102280;27;61911;-75
2023/12/08 10:42:27;;;;;;;;;15.75;10.50;;;;;-146.67;82.68;75348.50;5117735;27;62021;-74
2023/12/08 10:44:54;;;;;;;;;12.00;9.50;;;;;-146.67;82.51;75338.50;5101561;27;62921;-74
2023/12/08 10:47:21;;;;;;;;;20.00;10.00;;;;;-146.67;82.07;75330.53;5101339;27;61815;-74
2023/12/08 10:49:49;;;;;;;;;7.75;5.00;;;;;-146.67;81.60;75324.53;5101603;27;61852;-75
2023/12/08 10:52:15;;;;;;;;;12.25;5.00;;;;;-146.67;81.74;75310.56;5105048;27;62077;-72
2023/12/08 10:54:41;;;;;;;;;7.75;6.00;;;;;-146.67;80.93;75300.56;5093991;27;63717;-73
2023/12/08 10:57:07;;;;;;;;;8.00;7.00;;;;;-146.67;80.24;75300.56;5091405;27;61951;-73
2023/12/08 10:59:37;;;;;;;;;10.00;8.00;;;;;-146.67;80.18;75290.59;5099018;27;62484;-72
2023/12/08 11:02:04;;;;;;;;;10.50;6.00;;;;;-146.67;79.60;75292.56;5111702;27;62314;-73
2023/12/08 11:04:33;;;;;;;;;7.00;4.50;;;;;-146.67;79.54;75290.59;5108270;27;64656;-72